Wetterdaten: aktuell Samstag, 03.06.2023 06:05
Datum Zeit Lufttemp. Wassertemp. Feuchte Luftdruck Regen Wind Richtung Richtung Windben
03.06.2023 06:05 16,2 C 22,8 C 93 % 1014,9 hPa 0,0 l/m 0,0 kts (0 Bft) W-NW 291 0,0 kts (0 Bft)
03.06.2023 06:04 16,2 C 23,3 C 93 % 1015,0 hPa 0,0 l/m 0,0 kts (0 Bft) W-NW 291 0,0 kts (0 Bft)
03.06.2023 06:03 16,2 C 23,3 C 93 % 1015,0 hPa 0,0 l/m 0,0 kts (0 Bft) W-NW 291 0,0 kts (0 Bft)
03.06.2023 06:02 16,2 C 23,3 C 92 % 1015,0 hPa 0,0 l/m 0,0 kts (0 Bft) W-NW 291 0,0 kts (0 Bft)
03.06.2023 06:01 16,2 C 23,3 C 92 % 1015,0 hPa 0,0 l/m 0,0 kts (0 Bft) W-NW 291 0,0 kts (0 Bft)
03.06.2023 06:00 16,2 C 22,8 C 92 % 1015,0 hPa 0,0 l/m 0,5 kts (0 Bft) W-NW 291 2,1 kts (1 Bft)
03.06.2023 05:59 16,3 C 22,8 C 92 % 1015,0 hPa 0,0 l/m 1,9 kts (1 Bft) W-NW 291 3,1 kts (2 Bft)
03.06.2023 05:58 16,3 C 22,8 C 92 % 1015,0 hPa 0,0 l/m 2,6 kts (1 Bft) W-NW 291 3,1 kts (2 Bft)
03.06.2023 05:57 16,3 C 22,8 C 92 % 1015,0 hPa 0,0 l/m 2,9 kts (2 Bft) W-NW 291 3,1 kts (2 Bft)
03.06.2023 05:56 16,3 C 22,8 C 92 % 1015,0 hPa 0,0 l/m 0,9 kts (1 Bft) W-NW 291 3,1 kts (2 Bft)
03.06.2023 05:55 16,3 C 22,8 C 92 % 1015,0 hPa 0,0 l/m 0,0 kts (0 Bft) W-NW 291 0,0 kts (0 Bft)
03.06.2023 05:54 16,3 C 22,8 C 92 % 1015,0 hPa 0,0 l/m 0,1 kts (0 Bft) W-NW 291 1,0 kts (1 Bft)
03.06.2023 05:53 16,4 C 22,8 C 92 % 1014,9 hPa 0,0 l/m 0,0 kts (0 Bft) W-NW 291 0,0 kts (0 Bft)
03.06.2023 05:52 16,4 C 22,8 C 92 % 1015,0 hPa 0,0 l/m 0,0 kts (0 Bft) W-NW 291 0,0 kts (0 Bft)
03.06.2023 05:51 16,4 C 22,8 C 92 % 1015,0 hPa 0,0 l/m 0,0 kts (0 Bft) W-NW 291 0,0 kts (0 Bft)
03.06.2023 05:50 16,5 C 22,8 C 92 % 1014,9 hPa 0,0 l/m 0,0 kts (0 Bft) W-NW 291 0,0 kts (0 Bft)
03.06.2023 05:49 16,5 C 22,8 C 92 % 1015,0 hPa 0,0 l/m 0,0 kts (0 Bft) W-NW 291 0,0 kts (0 Bft)
03.06.2023 05:48 16,6 C 22,8 C 93 % 1015,0 hPa 0,0 l/m 0,0 kts (0 Bft) W-NW 291 0,0 kts (0 Bft)
03.06.2023 05:47 16,5 C 22,8 C 93 % 1015,0 hPa 0,0 l/m 0,0 kts (0 Bft) W-NW 291 0,0 kts (0 Bft)
03.06.2023 05:46 16,4 C 22,8 C 92 % 1015,0 hPa 0,0 l/m 0,0 kts (0 Bft) W-NW 291 0,0 kts (0 Bft)
03.06.2023 05:45 16,4 C 22,8 C 92 % 1015,0 hPa 0,0 l/m 0,0 kts (0 Bft) W-NW 291 0,0 kts (0 Bft)
03.06.2023 05:44 16,3 C 22,8 C 92 % 1015,0 hPa 0,0 l/m 0,0 kts (0 Bft) W-NW 291 0,0 kts (0 Bft)
03.06.2023 05:43 16,3 C 22,8 C 91 % 1015,0 hPa 0,0 l/m 0,0 kts (0 Bft) W-NW 291 0,0 kts (0 Bft)
03.06.2023 05:42 16,3 C 22,8 C 91 % 1014,9 hPa 0,0 l/m 0,0 kts (0 Bft) W-NW 291 0,0 kts (0 Bft)
03.06.2023 05:41 16,3 C 22,8 C 91 % 1014,9 hPa 0,0 l/m 0,0 kts (0 Bft) W-NW 291 0,0 kts (0 Bft)
03.06.2023 05:40 16,3 C 22,8 C 91 % 1015,0 hPa 0,0 l/m 0,0 kts (0 Bft) W-NW 291 0,0 kts (0 Bft)
03.06.2023 05:39 16,3 C 22,8 C 91 % 1015,0 hPa 0,0 l/m 0,0 kts (0 Bft) W-NW 291 0,0 kts (0 Bft)
03.06.2023 05:38 16,3 C 22,8 C 92 % 1015,0 hPa 0,0 l/m 0,0 kts (0 Bft) W-NW 291 0,0 kts (0 Bft)
03.06.2023 05:37 16,3 C 22,8 C 92 % 1015,0 hPa 0,0 l/m 0,0 kts (0 Bft) W-NW 291 0,0 kts (0 Bft)
03.06.2023 05:36 16,3 C 22,8 C 92 % 1015,0 hPa 0,0 l/m 0,0 kts (0 Bft) W-NW 291 0,0 kts (0 Bft)
03.06.2023 05:35 16,3 C 22,8 C 92 % 1015,0 hPa 0,0 l/m 0,0 kts (0 Bft) W-NW 291 0,0 kts (0 Bft)
03.06.2023 05:34 16,3 C 22,8 C 92 % 1014,9 hPa 0,0 l/m 0,0 kts (0 Bft) W-NW 291 0,0 kts (0 Bft)
03.06.2023 05:33 16,3 C 22,8 C 92 % 1014,9 hPa 0,0 l/m 0,0 kts (0 Bft) W-NW 291 0,0 kts (0 Bft)
03.06.2023 05:32 16,3 C 22,8 C 92 % 1014,9 hPa 0,0 l/m 0,0 kts (0 Bft) W-NW 291 0,0 kts (0 Bft)
03.06.2023 05:31 16,3 C 22,8 C 92 % 1014,9 hPa 0,0 l/m 0,0 kts (0 Bft) W-NW 291 0,0 kts (0 Bft)
03.06.2023 05:30 16,3 C 22,8 C 92 % 1014,9 hPa 0,0 l/m 0,0 kts (0 Bft) W-NW 291 0,0 kts (0 Bft)
03.06.2023 05:29 16,3 C 22,8 C 92 % 1014,9 hPa 0,0 l/m 0,0 kts (0 Bft) W-NW 291 0,0 kts (0 Bft)
03.06.2023 05:28 16,3 C 22,8 C 92 % 1014,8 hPa 0,0 l/m 0,0 kts (0 Bft) W-NW 291 0,0 kts (0 Bft)
03.06.2023 05:27 16,3 C 22,8 C 92 % 1014,9 hPa 0,0 l/m 0,5 kts (0 Bft) W-NW 291 2,1 kts (1 Bft)
03.06.2023 05:26 16,3 C 22,8 C 92 % 1014,8 hPa 0,0 l/m 1,6 kts (1 Bft) W-NW 291 4,2 kts (2 Bft)
03.06.2023 05:25 16,3 C 22,8 C 92 % 1014,9 hPa 0,0 l/m 0,0 kts (0 Bft) W-NW 291 0,0 kts (0 Bft)
03.06.2023 05:24 16,3 C 22,8 C 92 % 1014,8 hPa 0,0 l/m 0,3 kts (0 Bft) W-NW 291 2,1 kts (1 Bft)
03.06.2023 05:23 16,3 C 22,8 C 92 % 1014,8 hPa 0,0 l/m 1,8 kts (1 Bft) W-NW 291 3,1 kts (2 Bft)
03.06.2023 05:22 16,3 C 22,8 C 92 % 1014,8 hPa 0,0 l/m 1,8 kts (1 Bft) W-NW 291 3,1 kts (2 Bft)
03.06.2023 05:21 16,4 C 22,8 C 92 % 1014,9 hPa 0,0 l/m 0,1 kts (0 Bft) W-NW 291 1,0 kts (1 Bft)
03.06.2023 05:20 16,4 C 22,8 C 92 % 1014,9 hPa 0,0 l/m 1,8 kts (1 Bft) W-NW 291 3,1 kts (2 Bft)
03.06.2023 05:19 16,4 C 22,2 C 92 % 1014,8 hPa 0,0 l/m 1,1 kts (1 Bft) W-NW 291 4,2 kts (2 Bft)
03.06.2023 05:18 16,4 C 22,2 C 92 % 1014,8 hPa 0,0 l/m 2,2 kts (1 Bft) W-NW 291 3,1 kts (2 Bft)
03.06.2023 05:17 16,4 C 22,2 C 91 % 1014,8 hPa 0,0 l/m 3,0 kts (2 Bft) W-NW 291 4,2 kts (2 Bft)
03.06.2023 05:16 16,4 C 22,2 C 91 % 1014,8 hPa 0,0 l/m 3,1 kts (2 Bft) W-NW 291 4,2 kts (2 Bft)
03.06.2023 05:15 16,4 C 22,2 C 91 % 1014,8 hPa 0,0 l/m 3,3 kts (2 Bft) W-NW 291 4,2 kts (2 Bft)
03.06.2023 05:14 16,4 C 22,2 C 91 % 1014,8 hPa 0,0 l/m 2,2 kts (1 Bft) W-NW 291 4,2 kts (2 Bft)
03.06.2023 05:13 16,4 C 22,2 C 91 % 1014,8 hPa 0,0 l/m 0,0 kts (0 Bft) W-NW 291 0,0 kts (0 Bft)
03.06.2023 05:12 16,4 C 22,2 C 91 % 1014,8 hPa 0,0 l/m 0,0 kts (0 Bft) W-NW 291 0,0 kts (0 Bft)
03.06.2023 05:11 16,4 C 22,2 C 91 % 1014,8 hPa 0,0 l/m 0,1 kts (0 Bft) W-NW 291 1,0 kts (1 Bft)
03.06.2023 05:10 16,4 C 22,2 C 91 % 1014,8 hPa 0,0 l/m 0,2 kts (0 Bft) W-NW 291 2,1 kts (1 Bft)
03.06.2023 05:09 16,4 C 22,2 C 92 % 1014,8 hPa 0,0 l/m 0,2 kts (0 Bft) W-NW 291 2,1 kts (1 Bft)
03.06.2023 05:08 16,4 C 22,2 C 91 % 1014,9 hPa 0,0 l/m 0,0 kts (0 Bft) W-NW 291 0,0 kts (0 Bft)
03.06.2023 05:07 16,4 C 22,2 C 91 % 1014,8 hPa 0,0 l/m 1,0 kts (1 Bft) W-NW 291 4,2 kts (2 Bft)
03.06.2023 05:06 16,4 C 22,2 C 91 % 1014,8 hPa 0,0 l/m 2,6 kts (1 Bft) W-NW 291 4,2 kts (2 Bft)
03.06.2023 05:05 16,4 C 22,2 C 91 % 1014,8 hPa 0,0 l/m 3,1 kts (2 Bft) W-NW 291 5,2 kts (2 Bft)
_ Min-Zeit 04:32 00:03 00:00 00:00 - 00:45 - - 00:45
Minimum _ 16,1 C 22,2 C 77 % 1013,6 hPa - 0,0 kts (0 Bft) - - 0,0 kts (0 Bft)
_ Max-Zeit 00:00 00:41 04:21 02:18 04:00 00:12 - - 00:04
Maximum _ 18,6 C 23,3 C 93 % 1015,1 hPa 0,2 l/m 8,5 kts
W (3 Bft)
- - 16,7 kts
W (5 Bft)
Durchschnitt _ 17,0 C 22,9 C 89 % 1014,7 hPa #0,2 l/m 1,8 kts (1 Bft) W-NW - 3,4 kts (2 Bft)